Newcastle, Wyoming
Current Conditions -  °F | °C
As of 6:15 PM on Thursday 27 Nov 2014 (Local Time) from KECS Reporting Station
Clear Clear  
Wind Chill: -2°   Ceiling: Unl
Heat Index:   Visibility: 10mi
Dew Point: -2°   Wind: 7mph
Humidity: 81%   Direction: 10°N
Pressure: 29.95"   Gusts: NA
Location:  43.85°N, 104.2°W
Report Text: KECS 280115Z AUTO 01006KT 10SM CLR 01/M02 A2995 RMK AO2
Loading
Personal Weather Stations






























Interactive Weather Map New forecast layout! Learn more

10-Day Weather Forecast

Advertisements
Track Severe Weather on mobile